Time;durP1;ratioP1;P1;durP2;ratioP2;P2;SDS_P1;SDS_P2;PMS_P1;PMS_P2;Temp;Humidity;BMP_temperature;BMP_pressure;BME280_temperature;BME280_humidity;BME280_pressure;Samples;Min_cycle;Max_cycle;Signal;HPM_P1;HPM_P2
2021/12/12 00:01:33;;;;;;;5.70;2.90;;;12.60;78.60;;;;;;5026787;28;20044;-72
2021/12/12 00:04:11;;;;;;;8.55;3.15;;;12.60;78.60;;;;;;5027751;28;20041;-74
2021/12/12 00:06:40;;;;;;;9.38;3.45;;;12.60;78.60;;;;;;5026758;28;20033;-72
2021/12/12 00:09:12;;;;;;;9.25;3.42;;;12.60;78.60;;;;;;5026812;28;20497;-74
2021/12/12 00:11:40;;;;;;;6.10;2.60;;;12.70;78.80;;;;;;5027798;28;20026;-72
2021/12/12 00:14:13;;;;;;;4.70;2.70;;;12.60;78.70;;;;;;5026380;28;20029;-73
2021/12/12 00:16:41;;;;;;;8.15;2.65;;;12.60;78.70;;;;;;5027937;28;20707;-73
2021/12/12 00:19:08;;;;;;;7.57;2.70;;;12.60;78.60;;;;;;5026154;28;20116;-73
2021/12/12 00:21:36;;;;;;;6.88;3.25;;;12.60;78.70;;;;;;5027599;28;20179;-74
2021/12/12 00:24:04;;;;;;;5.80;2.70;;;12.60;78.70;;;;;;5027166;28;20033;-73
2021/12/12 00:26:30;;;;;;;7.65;3.08;;;12.60;78.70;;;;;;5027719;28;20175;-73
2021/12/12 00:28:57;;;;;;;7.20;2.88;;;12.60;78.70;;;;;;5026640;28;20128;-74
2021/12/12 00:31:24;;;;;;;7.60;2.95;;;12.60;78.80;;;;;;5026719;28;20051;-73
2021/12/12 00:33:53;;;;;;;7.45;3.08;;;12.60;78.80;;;;;;5027309;28;20037;-74
2021/12/12 00:36:19;;;;;;;6.82;3.53;;;12.60;78.90;;;;;;5026449;28;20079;-75
2021/12/12 00:38:50;;;;;;;5.68;2.90;;;12.60;78.90;;;;;;4993319;28;20037;-74
2021/12/12 00:41:24;;;;;;;8.38;2.95;;;12.60;79.00;;;;;;5027117;28;20033;-73
2021/12/12 00:43:52;;;;;;;8.98;3.15;;;12.60;79.10;;;;;;5027204;28;20098;-74
2021/12/12 00:46:20;;;;;;;7.85;3.08;;;12.60;79.00;;;;;;5026714;28;20044;-72
2021/12/12 00:48:48;;;;;;;6.57;3.03;;;12.60;79.00;;;;;;5027080;28;20116;-73
2021/12/12 00:51:17;;;;;;;5.00;2.38;;;12.70;79.20;;;;;;5026858;28;20022;-73
2021/12/12 00:53:44;;;;;;;7.20;2.88;;;12.60;79.10;;;;;;5026427;28;20045;-73
2021/12/12 00:56:11;;;;;;;5.47;2.20;;;12.60;79.00;;;;;;5026410;28;20040;-73
2021/12/12 00:58:38;;;;;;;6.60;2.50;;;12.60;79.00;;;;;;5026646;28;20116;-74
2021/12/12 01:01:22;;;;;;;6.45;3.25;;;12.70;79.20;;;;;;5026903;28;20048;-73
2021/12/12 01:03:58;;;;;;;7.97;3.42;;;12.70;79.30;;;;;;5026316;28;20408;-73
2021/12/12 01:06:25;;;;;;;4.68;2.58;;;12.70;79.20;;;;;;5027350;28;20035;-74
2021/12/12 01:08:53;;;;;;;5.45;2.28;;;12.70;79.20;;;;;;5026962;28;20049;-73
2021/12/12 01:11:21;;;;;;;5.30;2.55;;;12.60;79.00;;;;;;5027370;28;20445;-73
2021/12/12 01:13:48;;;;;;;3.28;1.98;;;12.70;79.20;;;;;;5026218;28;20069;-73
2021/12/12 01:16:24;;;;;;;4.72;2.38;;;12.70;79.30;;;;;;5026581;28;20029;-73
2021/12/12 01:18:58;;;;;;;4.85;2.20;;;12.70;79.30;;;;;;5026507;28;20310;-73
2021/12/12 01:21:30;;;;;;;6.63;2.40;;;12.70;79.30;;;;;;5027098;28;20013;-73
2021/12/12 01:24:01;;;;;;;6.95;2.90;;;12.70;79.40;;;;;;5027230;28;20059;-73
2021/12/12 01:26:29;;;;;;;6.90;3.00;;;12.70;79.40;;;;;;5026334;28;20390;-73
2021/12/12 01:28:57;;;;;;;5.30;2.58;;;12.70;79.40;;;;;;5026669;28;20076;-72
2021/12/12 01:31:29;;;;;;;3.92;3.22;;;12.70;79.50;;;;;;5024656;28;20500;-72
2021/12/12 01:34:00;;;;;;;5.40;2.75;;;12.70;79.50;;;;;;5025163;28;20094;-73
2021/12/12 01:36:45;;;;;;;5.30;2.20;;;12.70;79.50;;;;;;5026337;28;20025;-72
2021/12/12 01:39:13;;;;;;;6.07;2.80;;;12.70;79.50;;;;;;5025433;28;20030;-73
2021/12/12 01:41:48;;;;;;;4.38;2.33;;;12.70;79.60;;;;;;5024948;28;20473;-73
2021/12/12 01:44:24;;;;;;;3.13;2.17;;;12.70;79.60;;;;;;5026147;28;20025;-73
2021/12/12 01:47:08;;;;;;;6.05;2.50;;;12.70;79.60;;;;;;5025945;28;20524;-73
2021/12/12 01:49:38;;;;;;;5.40;2.97;;;12.70;79.60;;;;;;5024084;28;20547;-74
2021/12/12 01:52:07;;;;;;;3.97;2.55;;;12.70;79.60;;;;;;5026080;28;20052;-73
2021/12/12 01:54:45;;;;;;;3.78;2.28;;;12.70;79.60;;;;;;5025435;28;20112;-72
2021/12/12 01:57:22;;;;;;;5.47;2.40;;;12.70;79.60;;;;;;5026336;28;20488;-73
2021/12/12 01:59:49;;;;;;;3.65;2.53;;;12.70;79.60;;;;;;5025478;28;20188;-73
2021/12/12 02:02:21;;;;;;;5.07;2.80;;;12.70;79.60;;;;;;5026040;28;20099;-73
2021/12/12 02:04:55;;;;;;;4.95;3.05;;;12.70;79.60;;;;;;5025506;28;20033;-73
2021/12/12 02:07:26;;;;;;;3.25;2.10;;;12.70;79.60;;;;;;5024943;28;20268;-73
2021/12/12 02:09:54;;;;;;;3.72;2.10;;;12.70;79.60;;;;;;5026006;28;20029;-74
2021/12/12 02:12:23;;;;;;;4.15;2.60;;;12.70;79.60;;;;;;5026540;28;20042;-74
2021/12/12 02:14:50;;;;;;;3.20;2.20;;;12.70;79.60;;;;;;5026044;28;20550;-73
2021/12/12 02:17:30;;;;;;;2.95;2.30;;;12.70;79.70;;;;;;5025706;28;20032;-73
2021/12/12 02:20:14;;;;;;;5.75;2.65;;;12.70;79.70;;;;;;5024500;28;20497;-73
2021/12/12 02:22:58;;;;;;;3.80;2.45;;;12.70;79.70;;;;;;5025721;28;20033;-73
2021/12/12 02:36:33;;;;;;;3.90;2.45;;;12.70;79.80;;;;;;5007844;28;20034;-73
2021/12/12 02:39:02;;;;;;;4.93;3.45;;;12.70;79.80;;;;;;5018180;28;20091;-73
2021/12/12 02:41:29;;;;;;;3.83;2.30;;;12.70;79.80;;;;;;5027777;28;20041;-73
2021/12/12 02:43:59;;;;;;;2.45;2.25;;;12.70;79.80;;;;;;5028050;28;20101;-73
2021/12/12 02:46:32;;;;;;;3.13;2.45;;;12.70;79.80;;;;;;5025325;28;20025;-73
2021/12/12 02:49:06;;;;;;;3.83;2.60;;;12.70;79.80;;;;;;5024272;28;20041;-74
2021/12/12 02:51:35;;;;;;;4.82;2.20;;;12.70;79.80;;;;;;5030955;28;20117;-74
2021/12/12 02:54:01;;;;;;;3.45;2.38;;;12.70;79.80;;;;;;5029447;28;20025;-73
2021/12/12 02:56:36;;;;;;;4.38;2.35;;;12.80;79.90;;;;;;5030409;28;20025;-74
2021/12/12 02:59:07;;;;;;;4.15;2.55;;;12.80;80.00;;;;;;5029253;28;20040;-74
2021/12/12 03:01:57;;;;;;;3.33;2.47;;;12.80;79.90;;;;;;5033784;28;20037;-74
2021/12/12 03:04:25;;;;;;;3.95;2.25;;;12.80;80.00;;;;;;5033348;28;20186;-74
2021/12/12 03:06:51;;;;;;;3.15;2.35;;;12.80;79.90;;;;;;5034138;28;20036;-73
2021/12/12 03:09:25;;;;;;;2.97;2.60;;;12.80;80.00;;;;;;5034221;28;20679;-74
2021/12/12 03:11:56;;;;;;;3.33;2.30;;;12.80;80.00;;;;;;5033615;28;20081;-74
2021/12/12 03:14:22;;;;;;;4.22;2.65;;;12.80;80.10;;;;;;5033885;28;20060;-73
2021/12/12 03:16:49;;;;;;;5.88;2.55;;;12.70;79.90;;;;;;5033731;28;20026;-73
2021/12/12 03:19:20;;;;;;;3.78;2.30;;;12.70;79.90;;;;;;5033690;28;20037;-74
2021/12/12 03:21:47;;;;;;;3.25;2.15;;;12.80;80.10;;;;;;5031484;28;20503;-73
2021/12/12 03:24:19;;;;;;;3.13;2.33;;;12.80;80.10;;;;;;5031813;28;20024;-74
2021/12/12 03:26:51;;;;;;;4.18;2.53;;;12.80;80.10;;;;;;5032068;28;20057;-74
2021/12/12 03:29:17;;;;;;;3.50;2.85;;;12.80;80.10;;;;;;5032235;28;20033;-73
2021/12/12 03:31:48;;;;;;;3.58;2.72;;;12.70;80.00;;;;;;5033106;28;20025;-74
2021/12/12 03:34:17;;;;;;;3.10;2.75;;;12.80;80.20;;;;;;5032558;28;20038;-74
2021/12/12 03:36:44;;;;;;;5.45;2.30;;;12.80;80.10;;;;;;5031532;28;20036;-73
2021/12/12 03:39:21;;;;;;;2.75;2.40;;;12.80;80.10;;;;;;5033291;28;20489;-73
2021/12/12 03:41:48;;;;;;;4.13;2.80;;;12.80;80.10;;;;;;5033341;28;20034;-72
2021/12/12 03:44:19;;;;;;;3.50;2.63;;;12.80;80.10;;;;;;5032837;28;20393;-74
2021/12/12 03:46:50;;;;;;;3.33;2.20;;;12.80;80.10;;;;;;5032355;28;20040;-74
2021/12/12 03:49:17;;;;;;;3.13;2.28;;;12.80;80.10;;;;;;5033229;28;20045;-73
2021/12/12 03:51:44;;;;;;;2.45;2.25;;;12.80;80.00;;;;;;5032828;28;20548;-73
2021/12/12 03:54:11;;;;;;;4.70;2.75;;;12.80;80.00;;;;;;5033528;28;20113;-74
2021/12/12 03:56:40;;;;;;;3.20;2.75;;;12.80;80.10;;;;;;5033487;28;20036;-73
2021/12/12 03:59:06;;;;;;;2.30;2.10;;;12.80;80.10;;;;;;5034005;28;20447;-72
2021/12/12 04:01:39;;;;;;;2.75;2.17;;;12.80;80.10;;;;;;5033022;28;20132;-73
2021/12/12 04:04:19;;;;;;;2.30;2.10;;;12.80;80.10;;;;;;5033057;28;20034;-75
2021/12/12 04:06:47;;;;;;;2.33;2.10;;;12.80;80.10;;;;;;5032830;28;20072;-72
2021/12/12 04:09:14;;;;;;;3.45;2.15;;;12.80;80.10;;;;;;5032746;28;20045;-74
2021/12/12 04:11:47;;;;;;;2.50;2.05;;;12.80;80.20;;;;;;5032252;28;20036;-73
2021/12/12 04:14:15;;;;;;;2.33;2.13;;;12.80;80.20;;;;;;5032522;28;20499;-73
2021/12/12 04:16:45;;;;;;;2.72;1.92;;;12.80;80.20;;;;;;5031292;28;20029;-73
2021/12/12 04:19:12;;;;;;;5.07;2.55;;;12.80;80.20;;;;;;5032314;28;20034;-73
2021/12/12 04:21:39;;;;;;;3.15;2.30;;;12.80;80.30;;;;;;5032602;28;20033;-74
2021/12/12 04:24:05;;;;;;;2.40;1.98;;;12.80;80.30;;;;;;5032424;28;20032;-73
2021/12/12 04:26:37;;;;;;;2.35;1.88;;;12.80;80.30;;;;;;5014926;28;20041;-73
2021/12/12 04:29:03;;;;;;;3.05;2.35;;;12.80;80.80;;;;;;5032129;28;20140;-72
2021/12/12 04:31:30;;;;;;;2.75;2.30;;;12.80;80.30;;;;;;5032260;28;20138;-72
2021/12/12 04:33:57;;;;;;;3.50;2.40;;;12.80;80.30;;;;;;5030670;28;20029;-74
2021/12/12 04:36:30;;;;;;;2.38;1.90;;;12.80;80.30;;;;;;5032058;28;20021;-73
2021/12/12 04:39:11;;;;;;;2.42;2.20;;;12.80;80.30;;;;;;5031845;28;20033;-74
2021/12/12 04:41:37;;;;;;;2.33;1.80;;;12.80;80.30;;;;;;5031356;28;20552;-74
2021/12/12 04:44:04;;;;;;;2.22;2.03;;;12.80;80.20;;;;;;5031827;28;20035;-74
2021/12/12 04:52:23;;;;;;;1.70;1.60;;;12.90;80.40;;;;;;5031460;28;20033;-72
2021/12/12 04:55:07;;;;;;;3.80;1.60;;;12.80;80.70;;;;;;5031638;28;20055;-73
2021/12/12 04:57:43;;;;;;;2.22;2.03;;;12.80;80.30;;;;;;5031319;28;20032;-72
2021/12/12 05:00:19;;;;;;;2.10;1.90;;;12.80;80.20;;;;;;5031704;28;20021;-74
2021/12/12 05:03:13;;;;;;;2.47;1.67;;;12.80;80.20;;;;;;5031380;28;20464;-73
2021/12/12 05:06:06;;;;;;;2.17;1.90;;;12.80;80.30;;;;;;5030029;28;20443;-73
2021/12/12 05:08:37;;;;;;;2.85;2.28;;;12.80;80.30;;;;;;5030198;28;20053;-74
2021/12/12 05:11:08;;;;;;;2.40;2.10;;;12.80;80.30;;;;;;5030799;28;20033;-72
2021/12/12 05:13:50;;;;;;;2.22;2.03;;;12.80;80.30;;;;;;5031578;28;20485;-73
2021/12/12 05:16:23;;;;;;;2.03;1.67;;;12.80;80.30;;;;;;5031181;28;20030;-73
2021/12/12 05:18:52;;;;;;;3.83;1.80;;;12.80;80.30;;;;;;5030878;28;20029;-73
2021/12/12 05:21:25;;;;;;;2.38;2.05;;;12.80;80.40;;;;;;5031209;28;20045;-74
2021/12/12 05:23:55;;;;;;;;;;;12.80;80.40;;;;;;5031442;28;20431;-74
2021/12/12 05:26:30;;;;;;;3.72;1.75;;;12.80;80.30;;;;;;5031279;28;19956;-75
2021/12/12 05:29:18;;;;;;;2.50;1.92;;;12.80;80.30;;;;;;5031212;28;20076;-73
2021/12/12 05:31:47;;;;;;;2.30;1.60;;;12.80;80.30;;;;;;5031107;28;20091;-74
2021/12/12 05:34:14;;;;;;;1.70;1.50;;;12.80;80.30;;;;;;5030851;28;20036;-73
2021/12/12 05:36:42;;;;;;;1.83;1.73;;;12.80;80.30;;;;;;5029585;28;20666;-73
2021/12/12 05:39:08;;;;;;;2.08;1.88;;;12.80;80.30;;;;;;5031265;28;20061;-73
2021/12/12 05:41:35;;;;;;;2.58;1.98;;;12.80;80.30;;;;;;5031020;28;20057;-73
2021/12/12 05:44:02;;;;;;;1.90;1.70;;;12.80;80.30;;;;;;5030297;28;20029;-74
2021/12/12 05:46:29;;;;;;;3.03;2.05;;;12.80;80.40;;;;;;5030668;28;20022;-73
2021/12/12 05:48:55;;;;;;;3.22;1.77;;;12.80;80.40;;;;;;5027368;28;20037;-73
2021/12/12 05:51:22;;;;;;;2.20;1.80;;;12.80;80.40;;;;;;5027225;28;20045;-74
2021/12/12 05:53:50;;;;;;;2.03;1.85;;;12.80;80.40;;;;;;5027856;28;20033;-73
2021/12/12 05:56:20;;;;;;;2.88;1.65;;;12.80;80.40;;;;;;5026397;28;20032;-74
2021/12/12 05:58:46;;;;;;;2.10;1.38;;;12.80;80.50;;;;;;5027406;28;20099;-73
2021/12/12 06:01:12;;;;;;;2.47;1.70;;;12.80;80.50;;;;;;5025412;28;20488;-73
2021/12/12 06:03:43;;;;;;;2.70;2.00;;;12.80;80.50;;;;;;5022229;28;20038;-72
2021/12/12 06:06:15;;;;;;;2.25;2.00;;;12.80;80.50;;;;;;5011373;28;20045;-74
2021/12/12 06:08:44;;;;;;;4.38;1.65;;;12.80;80.50;;;;;;5016937;28;20053;-73
2021/12/12 06:11:12;;;;;;;3.30;2.10;;;12.80;80.50;;;;;;5015445;28;20054;-72
2021/12/12 06:13:40;;;;;;;2.22;1.63;;;12.80;80.50;;;;;;5016733;28;20034;-73
2021/12/12 06:16:07;;;;;;;3.50;1.83;;;12.80;80.50;;;;;;5025964;28;20029;-73
2021/12/12 06:18:35;;;;;;;2.17;1.65;;;12.80;80.50;;;;;;5025983;28;20117;-74
2021/12/12 06:21:03;;;;;;;2.13;1.40;;;12.80;80.50;;;;;;5026046;28;20021;-74
2021/12/12 06:23:29;;;;;;;2.33;1.52;;;12.80;80.50;;;;;;5026729;28;20399;-73
2021/12/12 06:25:55;;;;;;;1.88;1.45;;;12.90;80.70;;;;;;5027499;28;20075;-73
2021/12/12 06:28:29;;;;;;;2.92;1.40;;;12.90;80.70;;;;;;5026268;28;20457;-73
2021/12/12 06:30:56;;;;;;;3.15;1.67;;;12.90;80.70;;;;;;5026806;28;20059;-73
2021/12/12 06:33:23;;;;;;;2.63;1.95;;;12.90;80.60;;;;;;5025951;28;20033;-72
2021/12/12 06:35:49;;;;;;;2.85;1.45;;;12.90;80.60;;;;;;5028667;28;20021;-73
2021/12/12 06:38:16;;;;;;;2.95;1.30;;;13.00;80.70;;;;;;5029106;28;20040;-72
2021/12/12 06:40:43;;;;;;;4.95;1.70;;;13.00;80.80;;;;;;5029085;28;20022;-73
2021/12/12 06:43:12;;;;;;;4.95;1.75;;;13.00;80.70;;;;;;5029740;28;20433;-73
2021/12/12 06:45:38;;;;;;;4.75;2.30;;;13.00;81.20;;;;;;5027661;28;20104;-72
2021/12/12 06:48:10;;;;;;;3.90;1.98;;;13.00;80.60;;;;;;5029811;28;20046;-72
2021/12/12 06:50:38;;;;;;;3.35;2.03;;;13.00;80.60;;;;;;5029166;28;20717;-72
2021/12/12 06:53:05;;;;;;;3.92;1.70;;;13.10;80.80;;;;;;5028159;28;20025;-72
2021/12/12 06:55:33;;;;;;;5.75;1.60;;;13.10;81.30;;;;;;5015970;28;20041;-72
2021/12/12 06:57:59;;;;;;;3.40;1.50;;;13.10;80.70;;;;;;5027585;28;20084;-73
2021/12/12 07:00:27;;;;;;;2.70;1.75;;;13.10;80.70;;;;;;5027658;28;20444;-73
2021/12/12 07:02:53;;;;;;;4.18;1.80;;;13.10;80.70;;;;;;5029152;28;20703;-72
2021/12/12 07:05:25;;;;;;;4.28;1.60;;;13.10;80.70;;;;;;5029247;28;20026;-72
2021/12/12 07:07:52;;;;;;;4.13;2.45;;;13.10;80.70;;;;;;5028841;28;20082;-73
2021/12/12 07:10:22;;;;;;;3.25;1.50;;;13.10;81.20;;;;;;5028883;28;20042;-73
2021/12/12 07:12:54;;;;;;;4.78;1.45;;;13.20;80.80;;;;;;5028511;28;20033;-72
2021/12/12 07:15:23;;;;;;;5.90;1.65;;;13.20;80.80;;;;;;5029125;28;20068;-72
2021/12/12 07:17:53;;;;;;;2.70;1.58;;;13.20;80.80;;;;;;5028489;28;20026;-73
2021/12/12 07:20:20;;;;;;;4.68;1.45;;;13.20;80.80;;;;;;5024455;28;20026;-72
2021/12/12 07:22:46;;;;;;;6.35;1.90;;;13.20;80.80;;;;;;5021857;28;20029;-73
2021/12/12 07:25:12;;;;;;;3.92;1.65;;;13.20;80.80;;;;;;5026927;28;20032;-73
2021/12/12 07:27:38;;;;;;;2.90;1.80;;;13.20;80.80;;;;;;5026648;28;20040;-72
2021/12/12 07:30:06;;;;;;;5.90;1.80;;;13.20;80.80;;;;;;5027372;28;20037;-73
2021/12/12 07:32:33;;;;;;;5.00;1.77;;;13.20;80.90;;;;;;5027332;28;20022;-73
2021/12/12 07:34:59;;;;;;;5.20;1.63;;;13.20;80.90;;;;;;5028186;28;20543;-73
2021/12/12 07:37:25;;;;;;;4.75;1.50;;;13.20;80.90;;;;;;5017553;28;20061;-73
2021/12/12 07:39:52;;;;;;;4.35;1.80;;;13.20;80.90;;;;;;5023265;28;20052;-75
2021/12/12 07:42:18;;;;;;;2.08;1.30;;;13.20;80.90;;;;;;5010641;28;20109;-73
2021/12/12 07:44:44;;;;;;;5.22;1.20;;;13.20;80.90;;;;;;5027316;28;20040;-72
2021/12/12 07:47:14;;;;;;;4.45;1.90;;;13.20;80.90;;;;;;5017959;28;20116;-75
2021/12/12 07:49:45;;;;;;;2.22;1.88;;;13.20;80.90;;;;;;5027302;28;20386;-74
2021/12/12 07:52:17;;;;;;;4.57;1.50;;;13.30;81.10;;;;;;5019322;28;20032;-74
2021/12/12 07:54:45;;;;;;;3.45;1.15;;;13.30;81.10;;;;;;5025807;28;20517;-74
2021/12/12 07:57:13;;;;;;;4.47;1.75;;;13.30;81.00;;;;;;5020988;28;20030;-75
2021/12/12 07:59:41;;;;;;;3.05;0.98;;;13.30;81.20;;;;;;5027497;28;20030;-74
2021/12/12 08:02:10;;;;;;;3.38;1.50;;;13.40;81.60;;;;;;5024329;28;20422;-74
2021/12/12 08:04:37;;;;;;;3.95;1.60;;;13.40;81.70;;;;;;5026095;28;20171;-74
2021/12/12 08:07:03;;;;;;;3.80;1.30;;;13.40;81.70;;;;;;5005889;28;20033;-75
2021/12/12 08:09:31;;;;;;;5.95;1.63;;;13.40;81.70;;;;;;5024851;28;20033;-73
2021/12/12 08:11:57;;;;;;;4.70;1.30;;;13.50;81.90;;;;;;5027897;28;20040;-75
2021/12/12 08:14:28;;;;;;;4.80;1.30;;;13.50;82.50;;;;;;5028021;28;20432;-75
2021/12/12 08:16:55;;;;;;;4.38;1.35;;;13.50;82.00;;;;;;5027576;28;20110;-75
2021/12/12 08:19:23;;;;;;;6.88;1.90;;;13.50;81.90;;;;;;5027545;28;20029;-74
2021/12/12 08:21:59;;;;;;;4.15;1.50;;;13.50;82.00;;;;;;5026482;28;20123;-74
2021/12/12 08:24:25;;;;;;;4.00;1.52;;;13.50;82.10;;;;;;5027204;28;20033;-74
2021/12/12 08:26:52;;;;;;;7.07;3.10;;;13.50;82.10;;;;;;5027357;28;20493;-74
2021/12/12 08:29:20;;;;;;;7.00;1.52;;;13.50;82.10;;;;;;5027077;28;20053;-74
2021/12/12 08:31:47;;;;;;;3.63;1.45;;;13.50;82.10;;;;;;5027488;28;20066;-74
2021/12/12 08:34:14;;;;;;;4.57;1.50;;;13.50;82.10;;;;;;5026935;28;20148;-75
2021/12/12 08:36:52;;;;;;;4.18;1.70;;;13.50;82.10;;;;;;5027048;28;20025;-74
2021/12/12 08:39:18;;;;;;;4.80;1.80;;;13.50;82.10;;;;;;5025634;28;20408;-74
2021/12/12 08:41:48;;;;;;;4.68;1.50;;;13.50;82.10;;;;;;5027212;28;20037;-75
2021/12/12 08:44:14;;;;;;;4.45;1.33;;;13.50;82.10;;;;;;5027157;28;20487;-74
2021/12/12 08:46:43;;;;;;;3.20;1.30;;;13.50;82.00;;;;;;5026496;28;20029;-74
2021/12/12 08:49:11;;;;;;;4.22;1.42;;;13.50;82.00;;;;;;5026975;28;20077;-74
2021/12/12 08:51:42;;;;;;;5.05;1.50;;;13.50;82.00;;;;;;5027072;28;20036;-74
2021/12/12 08:54:15;;;;;;;2.15;1.10;;;13.60;82.10;;;;;;5025329;28;20115;-74
2021/12/12 08:56:48;;;;;;;2.78;1.20;;;13.60;82.00;;;;;;5025480;28;20029;-75
2021/12/12 08:59:21;;;;;;;4.78;1.13;;;13.60;81.90;;;;;;5026988;28;20036;-74
2021/12/12 09:01:48;;;;;;;;;;;13.60;81.90;;;;;;5016159;28;20041;-74
2021/12/12 09:04:14;;;;;;;5.93;1.50;;;13.70;82.00;;;;;;5021304;28;20395;-73
2021/12/12 09:07:08;;;;;;;4.15;1.33;;;13.70;81.80;;;;;;5026933;28;20036;-74
2021/12/12 09:09:44;;;;;;;3.83;1.52;;;13.70;81.80;;;;;;5019229;28;20521;-73
2021/12/12 09:12:25;;;;;;;3.08;1.25;;;13.70;81.70;;;;;;5006051;28;20033;-73
2021/12/12 09:15:03;;;;;;;6.72;1.92;;;13.80;81.90;;;;;;5024227;28;20477;-74
2021/12/12 09:17:39;;;;;;;4.53;1.40;;;13.80;81.80;;;;;;5025884;28;20071;-74
2021/12/12 09:20:25;;;;;;;4.78;1.20;;;13.80;81.80;;;;;;5025240;28;20028;-75
2021/12/12 09:23:01;;;;;;;6.57;1.55;;;13.80;81.80;;;;;;5026290;28;20040;-74
2021/12/12 09:25:43;;;;;;;2.60;1.48;;;13.80;82.30;;;;;;5025009;28;20093;-74
2021/12/12 09:28:32;;;;;;;6.03;1.95;;;13.80;81.70;;;;;;5026288;28;20037;-74
2021/12/12 09:31:03;;;;;;;3.13;1.00;;;13.90;81.90;;;;;;5022513;28;20136;-73
2021/12/12 09:33:38;;;;;;;3.05;1.30;;;13.90;81.70;;;;;;5026561;28;20037;-74
2021/12/12 09:36:17;;;;;;;3.53;1.15;;;13.90;81.70;;;;;;5024361;28;20033;-73
2021/12/12 09:39:07;;;;;;;5.72;1.25;;;14.00;81.80;;;;;;5025583;28;20114;-75
2021/12/12 09:42:15;;;;;;;2.67;1.05;;;14.00;81.70;;;;;;5025200;28;20385;-74
2021/12/12 09:45:05;;;;;;;1.58;1.05;;;14.10;81.80;;;;;;5026154;28;20552;-74
2021/12/12 09:51:16;;;;;;;3.58;0.95;;;14.20;81.70;;;;;;5002186;28;20049;-74
2021/12/12 09:54:04;;;;;;;4.15;1.45;;;14.20;81.60;;;;;;5015661;28;20034;-73
2021/12/12 09:56:56;;;;;;;2.88;1.00;;;14.30;81.70;;;;;;5027051;28;20602;-74
2021/12/12 09:59:41;;;;;;;6.05;1.98;;;14.30;81.60;;;;;;5025418;28;20148;-75
2021/12/12 10:02:12;;;;;;;3.17;1.20;;;14.30;81.50;;;;;;5017228;28;20099;-73
2021/12/12 10:04:43;;;;;;;4.97;1.63;;;14.40;81.60;;;;;;5012834;28;20044;-74
2021/12/12 10:07:35;;;;;;;3.38;0.95;;;14.40;81.50;;;;;;5019141;28;20034;-73
2021/12/12 10:10:11;;;;;;;3.78;1.27;;;14.40;81.40;;;;;;5008755;28;20050;-73
2021/12/12 10:12:48;;;;;;;4.70;1.48;;;14.50;81.50;;;;;;5010419;28;20026;-73
2021/12/12 10:15:20;;;;;;;2.67;1.80;;;14.50;81.40;;;;;;5010096;28;20042;-74
2021/12/12 10:17:49;;;;;;;4.80;1.67;;;14.50;81.40;;;;;;5013816;28;20662;-73
2021/12/12 10:20:36;;;;;;;3.53;1.30;;;14.50;81.40;;;;;;5030639;28;20033;-73
2021/12/12 10:23:27;;;;;;;4.30;1.50;;;14.50;81.30;;;;;;5034965;28;20030;-74
2021/12/12 10:25:56;;;;;;;4.88;1.10;;;14.50;81.30;;;;;;5028659;28;20125;-74
2021/12/12 10:28:32;;;;;;;2.33;0.90;;;14.50;81.30;;;;;;5022671;28;20131;-74
2021/12/12 10:31:13;;;;;;;3.83;1.13;;;14.60;81.40;;;;;;5033332;28;20128;-74
2021/12/12 10:34:05;;;;;;;4.55;1.42;;;14.60;81.40;;;;;;5027563;28;20026;-73
2021/12/12 10:36:37;;;;;;;4.22;1.10;;;14.60;81.40;;;;;;5016643;28;20076;-74
2021/12/12 10:39:27;;;;;;;2.40;1.00;;;14.70;81.60;;;;;;5024902;28;20151;-74
2021/12/12 10:41:58;;;;;;;3.42;1.63;;;14.80;81.70;;;;;;5021226;28;20120;-74
2021/12/12 10:44:29;;;;;;;6.13;2.25;;;14.80;81.60;;;;;;5029570;28;20067;-74
2021/12/12 10:47:05;;;;;;;2.63;1.00;;;14.80;81.50;;;;;;5018591;28;20034;-74
2021/12/12 10:50:17;;;;;;;2.10;0.90;;;14.90;81.60;;;;;;5025924;28;20049;-75
2021/12/12 10:52:50;;;;;;;4.38;1.65;;;15.00;81.60;;;;;;5021365;28;20554;-75
2021/12/12 10:55:30;;;;;;;0.98;0.65;;;15.00;81.40;;;;;;5029298;28;20117;-75
2021/12/12 10:58:25;;;;;;;2.10;0.93;;;15.10;82.00;;;;;;5028879;28;20287;-75
2021/12/12 11:00:57;;;;;;;1.63;0.70;;;15.20;81.70;;;;;;5008665;28;20137;-75
2021/12/12 11:03:38;;;;;;;3.13;0.90;;;15.30;81.70;;;;;;5015094;28;20034;-75
2021/12/12 11:06:15;;;;;;;2.88;1.00;;;15.30;81.50;;;;;;5028853;28;20200;-75
2021/12/12 11:09:05;;;;;;;2.00;1.00;;;15.40;81.60;;;;;;5028432;28;20037;-74
2021/12/12 11:11:46;;;;;;;2.30;1.13;;;15.40;81.40;;;;;;5015994;28;20048;-73
2021/12/12 11:14:34;;;;;;;3.72;1.15;;;15.40;81.30;;;;;;5027950;28;20029;-74
2021/12/12 11:17:05;;;;;;;4.93;1.17;;;15.50;81.40;;;;;;5028807;28;20033;-74
2021/12/12 11:19:51;;;;;;;5.63;1.17;;;15.50;81.30;;;;;;5027286;28;20112;-75
2021/12/12 11:22:27;;;;;;;5.22;1.73;;;15.70;81.80;;;;;;5028844;28;20025;-74
2021/12/12 11:25:04;;;;;;;2.47;1.23;;;15.80;82.00;;;;;;5028042;28;20516;-75
2021/12/12 11:27:45;;;;;;;4.93;1.05;;;16.00;82.00;;;;;;5028173;28;20057;-74
2021/12/12 11:30:21;;;;;;;2.42;0.90;;;16.10;81.80;;;;;;5010623;28;20037;-74
2021/12/12 11:32:51;;;;;;;3.30;1.40;;;16.20;81.80;;;;;;5028194;28;20112;-75
2021/12/12 11:35:20;;;;;;;2.92;0.90;;;16.20;81.60;;;;;;5018339;28;20039;-74
2021/12/12 11:37:55;;;;;;;3.53;1.52;;;16.20;81.60;;;;;;5025571;28;20038;-74
2021/12/12 11:40:27;;;;;;;3.15;0.98;;;16.20;81.50;;;;;;5027693;28;20037;-74
2021/12/12 11:43:11;;;;;;;3.07;1.37;;;16.20;81.50;;;;;;5026979;28;20095;-74
2021/12/12 11:45:41;;;;;;;3.70;1.08;;;16.20;81.40;;;;;;5027051;28;20064;-74
2021/12/12 11:48:28;;;;;;;4.22;1.40;;;16.20;81.40;;;;;;5028556;28;20452;-74
2021/12/12 11:51:28;;;;;;;2.00;0.98;;;16.20;81.20;;;;;;5026014;28;20048;-75
2021/12/12 11:54:15;;;;;;;1.35;0.75;;;16.30;81.30;;;;;;5004956;28;20125;-74
2021/12/12 11:56:49;;;;;;;2.60;1.23;;;16.30;81.20;;;;;;5018070;28;20037;-74
2021/12/12 11:59:22;;;;;;;2.72;0.98;;;16.30;81.10;;;;;;5026759;28;20644;-74
2021/12/12 12:01:49;;;;;;;2.13;0.95;;;16.40;81.20;;;;;;5026229;28;20103;-74
2021/12/12 12:04:23;;;;;;;2.15;0.88;;;16.40;81.60;;;;;;5028136;28;20143;-74
2021/12/12 12:07:13;;;;;;;1.90;0.88;;;16.40;80.90;;;;;;5027776;28;20151;-74
2021/12/12 12:10:03;;;;;;;1.88;0.70;;;16.40;80.70;;;;;;5023507;28;20128;-75
2021/12/12 12:12:43;;;;;;;1.73;1.00;;;16.40;80.60;;;;;;5017573;28;20030;-74
2021/12/12 12:15:40;;;;;;;2.58;0.80;;;16.50;80.70;;;;;;5026413;28;20095;-75
2021/12/12 12:18:34;;;;;;;4.38;1.05;;;16.50;80.60;;;;;;5020859;28;20044;-74
2021/12/12 12:21:20;;;;;;;2.67;1.13;;;16.50;80.50;;;;;;5022192;28;20033;-74
2021/12/12 12:24:26;;;;;;;2.08;1.20;;;16.50;80.40;;;;;;5020195;28;20057;-75
2021/12/12 12:27:04;;;;;;;1.92;0.70;;;16.50;80.30;;;;;;5022128;28;20428;-75
2021/12/12 12:29:33;;;;;;;1.52;0.85;;;16.50;80.30;;;;;;5017988;28;20044;-75
2021/12/12 12:32:05;;;;;;;2.60;0.80;;;16.50;80.20;;;;;;5006857;28;20230;-75
2021/12/12 12:34:49;;;;;;;1.83;0.70;;;16.50;80.00;;;;;;5027077;28;20033;-74
2021/12/12 12:37:53;;;;;;;2.58;0.82;;;16.60;80.10;;;;;;5026948;28;20040;-75
2021/12/12 12:40:37;;;;;;;2.33;0.80;;;16.60;80.00;;;;;;5004167;28;20193;-74
2021/12/12 12:43:40;;;;;;;3.08;0.80;;;16.60;79.90;;;;;;5015051;28;20046;-74
2021/12/12 12:46:34;;;;;;;3.80;0.70;;;16.60;79.80;;;;;;5027316;28;20438;-74
2021/12/12 12:49:38;;;;;;;3.33;1.13;;;16.60;79.70;;;;;;5025794;28;20084;-74
2021/12/12 12:52:34;;;;;;;2.03;0.65;;;16.60;79.70;;;;;;5007612;28;20025;-74
2021/12/12 12:55:00;;;;;;;1.65;0.50;;;16.60;79.60;;;;;;5019534;28;20034;-73
2021/12/12 12:57:30;;;;;;;3.10;0.98;;;16.60;79.60;;;;;;5012506;28;20044;-74
2021/12/12 13:00:08;;;;;;;1.52;0.80;;;16.60;79.40;;;;;;5019228;28;20030;-74
2021/12/12 13:02:53;;;;;;;1.13;0.70;;;16.70;79.50;;;;;;5006812;28;20582;-74
2021/12/12 13:06:07;;;;;;;0.75;0.60;;;16.70;79.30;;;;;;5026554;28;20492;-74
2021/12/12 13:09:12;;;;;;;2.08;0.88;;;16.70;79.20;;;;;;5018372;28;20060;-73
2021/12/12 13:12:09;;;;;;;3.33;0.73;;;16.70;79.10;;;;;;5021599;28;20060;-74
2021/12/12 13:15:02;;;;;;;2.67;1.10;;;16.70;79.10;;;;;;5026016;28;20408;-74
2021/12/12 13:17:40;;;;;;;;;;;16.70;79.10;;;;;;5028637;28;20034;-74
2021/12/12 13:20:16;;;;;;;2.95;0.85;;;16.70;79.10;;;;;;5027381;28;19920;-74
2021/12/12 13:23:16;;;;;;;3.00;0.80;;;16.70;79.20;;;;;;5018904;28;20029;-74
2021/12/12 13:25:59;;;;;;;2.97;0.90;;;16.70;79.10;;;;;;5025344;28;20396;-74
2021/12/12 13:28:35;;;;;;;2.95;1.08;;;16.70;79.10;;;;;;5026816;28;20112;-74
2021/12/12 13:31:17;;;;;;;2.20;0.75;;;16.70;79.00;;;;;;5023589;28;20531;-74
2021/12/12 13:33:50;;;;;;;1.20;0.93;;;16.70;79.50;;;;;;5019320;28;20396;-74
2021/12/12 13:36:32;;;;;;;1.80;0.70;;;16.70;79.00;;;;;;5016972;28;20033;-74
2021/12/12 13:39:08;;;;;;;2.40;0.95;;;16.70;78.90;;;;;;5041561;28;20057;-74
2021/12/12 13:41:52;;;;;;;1.30;0.85;;;16.70;78.80;;;;;;5041797;28;20040;-74
2021/12/12 13:44:36;;;;;;;3.85;1.15;;;16.80;79.00;;;;;;5016343;28;20044;-74